sensor_id;sensor_type;location;lat;lon;timestamp;temperature;humidity
71668;DHT22;59504;54.806;9.640;2023-05-01T00:00:02;4.90;55.00
71668;DHT22;59504;54.806;9.640;2023-05-01T00:02:14;4.90;55.00
71668;DHT22;59504;54.806;9.640;2023-05-01T00:04:24;4.90;55.10
71668;DHT22;59504;54.806;9.640;2023-05-01T00:06:53;4.90;55.20
71668;DHT22;59504;54.806;9.640;2023-05-01T00:09:23;4.80;55.10
71668;DHT22;59504;54.806;9.640;2023-05-01T00:11:56;4.80;55.20
71668;DHT22;59504;54.806;9.640;2023-05-01T00:14:17;4.80;55.20
71668;DHT22;59504;54.806;9.640;2023-05-01T00:16:38;4.80;55.40
71668;DHT22;59504;54.806;9.640;2023-05-01T00:19:04;4.70;55.30
71668;DHT22;59504;54.806;9.640;2023-05-01T00:21:28;4.80;55.30
71668;DHT22;59504;54.806;9.640;2023-05-01T00:24:00;4.80;55.10
71668;DHT22;59504;54.806;9.640;2023-05-01T00:26:29;4.80;55.10
71668;DHT22;59504;54.806;9.640;2023-05-01T00:29:02;4.60;54.80
71668;DHT22;59504;54.806;9.640;2023-05-01T00:31:28;4.60;54.80
71668;DHT22;59504;54.806;9.640;2023-05-01T00:33:30;4.60;54.80
71668;DHT22;59504;54.806;9.640;2023-05-01T00:35:36;4.60;54.80
71668;DHT22;59504;54.806;9.640;2023-05-01T00:37:51;4.60;55.00
71668;DHT22;59504;54.806;9.640;2023-05-01T00:40:00;4.60;55.10
71668;DHT22;59504;54.806;9.640;2023-05-01T00:42:01;4.50;55.20
71668;DHT22;59504;54.806;9.640;2023-05-01T00:44:34;4.50;55.30
71668;DHT22;59504;54.806;9.640;2023-05-01T00:46:45;4.60;55.40
71668;DHT22;59504;54.806;9.640;2023-05-01T00:48:52;4.50;55.40
71668;DHT22;59504;54.806;9.640;2023-05-01T00:51:04;4.50;55.40
71668;DHT22;59504;54.806;9.640;2023-05-01T00:53:15;4.50;55.50
71668;DHT22;59504;54.806;9.640;2023-05-01T00:55:38;4.40;55.60
71668;DHT22;59504;54.806;9.640;2023-05-01T00:58:16;4.50;55.60
71668;DHT22;59504;54.806;9.640;2023-05-01T01:00:57;4.40;55.60
71668;DHT22;59504;54.806;9.640;2023-05-01T01:03:20;4.40;55.60
71668;DHT22;59504;54.806;9.640;2023-05-01T01:05:45;4.40;55.60
71668;DHT22;59504;54.806;9.640;2023-05-01T01:08:28;4.40;55.60
71668;DHT22;59504;54.806;9.640;2023-05-01T01:20:56;4.30;55.70
71668;DHT22;59504;54.806;9.640;2023-05-01T01:26:51;4.20;55.80
71668;DHT22;59504;54.806;9.640;2023-05-01T01:34:50;4.20;55.50
71668;DHT22;59504;54.806;9.640;2023-05-01T01:40:10;4.00;55.00
71668;DHT22;59504;54.806;9.640;2023-05-01T01:45:01;4.00;55.30
71668;DHT22;59504;54.806;9.640;2023-05-01T01:47:33;4.10;55.30
71668;DHT22;59504;54.806;9.640;2023-05-01T01:49:41;4.00;55.40
71668;DHT22;59504;54.806;9.640;2023-05-01T01:51:49;4.00;55.40
71668;DHT22;59504;54.806;9.640;2023-05-01T01:56:38;4.00;55.50
71668;DHT22;59504;54.806;9.640;2023-05-01T01:59:13;4.00;55.70
71668;DHT22;59504;54.806;9.640;2023-05-01T02:01:20;3.90;55.90
71668;DHT22;59504;54.806;9.640;2023-05-01T02:03:36;4.00;56.00
71668;DHT22;59504;54.806;9.640;2023-05-01T02:08:47;3.90;56.00
71668;DHT22;59504;54.806;9.640;2023-05-01T02:11:12;4.00;56.20
71668;DHT22;59504;54.806;9.640;2023-05-01T02:13:43;3.90;56.30
71668;DHT22;59504;54.806;9.640;2023-05-01T02:16:13;4.00;56.50
71668;DHT22;59504;54.806;9.640;2023-05-01T02:18:47;4.00;56.40
71668;DHT22;59504;54.806;9.640;2023-05-01T02:21:12;3.90;56.50
71668;DHT22;59504;54.806;9.640;2023-05-01T02:23:34;3.90;56.80
71668;DHT22;59504;54.806;9.640;2023-05-01T02:26:03;4.00;57.10
71668;DHT22;59504;54.806;9.640;2023-05-01T02:28:37;3.90;57.20
71668;DHT22;59504;54.806;9.640;2023-05-01T02:31:03;3.90;57.00
71668;DHT22;59504;54.806;9.640;2023-05-01T02:36:06;3.80;56.80
71668;DHT22;59504;54.806;9.640;2023-05-01T02:38:15;3.90;56.80
71668;DHT22;59504;54.806;9.640;2023-05-01T02:40:27;3.90;56.80
71668;DHT22;59504;54.806;9.640;2023-05-01T02:42:34;3.90;56.80
71668;DHT22;59504;54.806;9.640;2023-05-01T02:45:08;3.90;56.80
71668;DHT22;59504;54.806;9.640;2023-05-01T02:47:38;3.90;56.70
71668;DHT22;59504;54.806;9.640;2023-05-01T02:50:07;3.90;56.70
71668;DHT22;59504;54.806;9.640;2023-05-01T02:52:45;3.90;56.80
71668;DHT22;59504;54.806;9.640;2023-05-01T02:55:10;3.90;56.80
71668;DHT22;59504;54.806;9.640;2023-05-01T02:57:33;3.90;56.90
71668;DHT22;59504;54.806;9.640;2023-05-01T03:00:01;3.90;57.00
71668;DHT22;59504;54.806;9.640;2023-05-01T03:02:22;3.80;57.10
71668;DHT22;59504;54.806;9.640;2023-05-01T03:04:49;3.90;57.10
71668;DHT22;59504;54.806;9.640;2023-05-01T03:07:12;3.80;57.10
71668;DHT22;59504;54.806;9.640;2023-05-01T03:09:18;3.80;57.20
71668;DHT22;59504;54.806;9.640;2023-05-01T03:11:32;3.80;57.20
71668;DHT22;59504;54.806;9.640;2023-05-01T03:14:01;3.80;57.10
71668;DHT22;59504;54.806;9.640;2023-05-01T03:16:13;3.80;57.20
71668;DHT22;59504;54.806;9.640;2023-05-01T03:18:33;3.80;57.10
71668;DHT22;59504;54.806;9.640;2023-05-01T03:21:00;3.80;56.90
71668;DHT22;59504;54.806;9.640;2023-05-01T03:23:29;3.80;57.10
71668;DHT22;59504;54.806;9.640;2023-05-01T03:25:57;3.70;57.00
71668;DHT22;59504;54.806;9.640;2023-05-01T03:28:27;3.80;57.00
71668;DHT22;59504;54.806;9.640;2023-05-01T03:30:54;3.70;57.10
71668;DHT22;59504;54.806;9.640;2023-05-01T03:33:20;3.70;57.20
71668;DHT22;59504;54.806;9.640;2023-05-01T03:35:50;3.80;57.40
71668;DHT22;59504;54.806;9.640;2023-05-01T03:38:44;3.70;57.70
71668;DHT22;59504;54.806;9.640;2023-05-01T03:41:14;3.80;57.40
71668;DHT22;59504;54.806;9.640;2023-05-01T03:44:09;3.80;57.70
71668;DHT22;59504;54.806;9.640;2023-05-01T03:46:33;3.60;57.50
71668;DHT22;59504;54.806;9.640;2023-05-01T03:48:53;3.70;57.60
71668;DHT22;59504;54.806;9.640;2023-05-01T03:51:22;3.70;57.70
71668;DHT22;59504;54.806;9.640;2023-05-01T03:53:46;3.60;57.60
71668;DHT22;59504;54.806;9.640;2023-05-01T03:56:18;3.60;57.60
71668;DHT22;59504;54.806;9.640;2023-05-01T03:58:42;3.70;57.70
71668;DHT22;59504;54.806;9.640;2023-05-01T04:00:56;3.60;57.60
71668;DHT22;59504;54.806;9.640;2023-05-01T04:03:02;3.70;57.60
71668;DHT22;59504;54.806;9.640;2023-05-01T04:05:28;3.70;58.10
71668;DHT22;59504;54.806;9.640;2023-05-01T04:07:32;3.60;58.20
71668;DHT22;59504;54.806;9.640;2023-05-01T04:09:39;3.70;58.70
71668;DHT22;59504;54.806;9.640;2023-05-01T04:11:54;3.70;58.40
71668;DHT22;59504;54.806;9.640;2023-05-01T04:13:57;3.70;58.20
71668;DHT22;59504;54.806;9.640;2023-05-01T04:16:04;3.60;59.20
71668;DHT22;59504;54.806;9.640;2023-05-01T04:18:25;3.60;59.20
71668;DHT22;59504;54.806;9.640;2023-05-01T04:20:26;3.70;59.00
71668;DHT22;59504;54.806;9.640;2023-05-01T04:22:35;3.70;58.90
71668;DHT22;59504;54.806;9.640;2023-05-01T04:24:42;3.70;58.60
71668;DHT22;59504;54.806;9.640;2023-05-01T04:26:42;3.80;58.40
71668;DHT22;59504;54.806;9.640;2023-05-01T04:28:47;3.80;58.80
71668;DHT22;59504;54.806;9.640;2023-05-01T04:31:08;3.90;58.80
71668;DHT22;59504;54.806;9.640;2023-05-01T04:33:14;3.90;58.90
71668;DHT22;59504;54.806;9.640;2023-05-01T04:35:18;3.90;58.90
71668;DHT22;59504;54.806;9.640;2023-05-01T04:37:42;3.90;59.00
71668;DHT22;59504;54.806;9.640;2023-05-01T04:39:52;4.00;59.10
71668;DHT22;59504;54.806;9.640;2023-05-01T04:41:58;3.90;59.20
71668;DHT22;59504;54.806;9.640;2023-05-01T04:44:23;4.10;59.70
71668;DHT22;59504;54.806;9.640;2023-05-01T04:48:59;4.30;60.00
71668;DHT22;59504;54.806;9.640;2023-05-01T04:51:18;4.30;60.10
71668;DHT22;59504;54.806;9.640;2023-05-01T04:53:29;4.40;59.90
71668;DHT22;59504;54.806;9.640;2023-05-01T04:55:40;4.50;60.20
71668;DHT22;59504;54.806;9.640;2023-05-01T04:57:43;4.60;60.10
71668;DHT22;59504;54.806;9.640;2023-05-01T05:00:07;4.70;59.90
71668;DHT22;59504;54.806;9.640;2023-05-01T05:02:22;4.70;60.50
71668;DHT22;59504;54.806;9.640;2023-05-01T05:04:56;4.90;61.00
71668;DHT22;59504;54.806;9.640;2023-05-01T05:07:23;5.00;61.20
71668;DHT22;59504;54.806;9.640;2023-05-01T05:09:52;5.10;62.40
71668;DHT22;59504;54.806;9.640;2023-05-01T05:12:27;5.20;60.90
71668;DHT22;59504;54.806;9.640;2023-05-01T05:14:54;5.30;61.20
71668;DHT22;59504;54.806;9.640;2023-05-01T05:17:20;5.30;61.20
71668;DHT22;59504;54.806;9.640;2023-05-01T05:19:54;5.60;60.80
71668;DHT22;59504;54.806;9.640;2023-05-01T05:21:55;5.60;61.30
71668;DHT22;59504;54.806;9.640;2023-05-01T05:24:03;5.60;61.10
71668;DHT22;59504;54.806;9.640;2023-05-01T05:26:12;5.80;61.60
71668;DHT22;59504;54.806;9.640;2023-05-01T05:28:27;5.80;61.60
71668;DHT22;59504;54.806;9.640;2023-05-01T05:30:34;6.00;62.20
71668;DHT22;59504;54.806;9.640;2023-05-01T05:32:34;6.00;62.00
71668;DHT22;59504;54.806;9.640;2023-05-01T05:34:37;6.10;62.30
71668;DHT22;59504;54.806;9.640;2023-05-01T05:36:47;6.20;62.50
71668;DHT22;59504;54.806;9.640;2023-05-01T05:38:58;6.30;62.90
71668;DHT22;59504;54.806;9.640;2023-05-01T05:41:13;6.40;62.70
71668;DHT22;59504;54.806;9.640;2023-05-01T05:46:17;6.60;62.80
71668;DHT22;59504;54.806;9.640;2023-05-01T05:48:40;6.80;63.00
71668;DHT22;59504;54.806;9.640;2023-05-01T05:51:01;6.90;62.40
71668;DHT22;59504;54.806;9.640;2023-05-01T05:53:02;6.90;62.70
71668;DHT22;59504;54.806;9.640;2023-05-01T05:55:18;7.00;61.50
71668;DHT22;59504;54.806;9.640;2023-05-01T05:57:25;7.20;60.70
71668;DHT22;59504;54.806;9.640;2023-05-01T05:59:52;7.30;60.60
71668;DHT22;59504;54.806;9.640;2023-05-01T06:02:02;7.30;61.30
71668;DHT22;59504;54.806;9.640;2023-05-01T06:04:28;7.40;61.20
71668;DHT22;59504;54.806;9.640;2023-05-01T06:06:56;7.60;60.80
71668;DHT22;59504;54.806;9.640;2023-05-01T06:09:20;7.70;61.20
71668;DHT22;59504;54.806;9.640;2023-05-01T06:12:14;7.70;61.90
71668;DHT22;59504;54.806;9.640;2023-05-01T06:14:38;7.90;61.60
71668;DHT22;59504;54.806;9.640;2023-05-01T06:17:00;8.10;61.50
71668;DHT22;59504;54.806;9.640;2023-05-01T06:19:21;8.20;62.40
71668;DHT22;59504;54.806;9.640;2023-05-01T06:21:47;8.40;62.60
71668;DHT22;59504;54.806;9.640;2023-05-01T06:24:27;8.50;62.70
71668;DHT22;59504;54.806;9.640;2023-05-01T06:26:51;8.70;63.00
71668;DHT22;59504;54.806;9.640;2023-05-01T06:29:18;8.80;62.60
71668;DHT22;59504;54.806;9.640;2023-05-01T06:31:42;8.90;61.30
71668;DHT22;59504;54.806;9.640;2023-05-01T06:34:03;9.20;60.30
71668;DHT22;59504;54.806;9.640;2023-05-01T06:36:32;9.30;59.30
71668;DHT22;59504;54.806;9.640;2023-05-01T06:39:00;9.40;59.60
71668;DHT22;59504;54.806;9.640;2023-05-01T06:41:30;9.50;59.70
71668;DHT22;59504;54.806;9.640;2023-05-01T06:46:30;9.70;59.20
71668;DHT22;59504;54.806;9.640;2023-05-01T06:48:54;9.80;59.00
71668;DHT22;59504;54.806;9.640;2023-05-01T06:51:04;9.80;58.50
71668;DHT22;59504;54.806;9.640;2023-05-01T06:53:05;10.00;58.40
71668;DHT22;59504;54.806;9.640;2023-05-01T06:55:18;10.00;58.70
71668;DHT22;59504;54.806;9.640;2023-05-01T06:57:25;10.10;58.60
71668;DHT22;59504;54.806;9.640;2023-05-01T06:59:26;10.20;58.90
71668;DHT22;59504;54.806;9.640;2023-05-01T07:01:35;10.30;58.50
71668;DHT22;59504;54.806;9.640;2023-05-01T07:03:39;10.40;58.40
71668;DHT22;59504;54.806;9.640;2023-05-01T07:05:47;10.50;58.10
71668;DHT22;59504;54.806;9.640;2023-05-01T07:08:03;10.60;58.00
71668;DHT22;59504;54.806;9.640;2023-05-01T07:10:09;10.60;57.80
71668;DHT22;59504;54.806;9.640;2023-05-01T07:12:16;10.70;57.70
71668;DHT22;59504;54.806;9.640;2023-05-01T07:14:25;10.70;57.70
71668;DHT22;59504;54.806;9.640;2023-05-01T07:16:36;10.80;57.30
71668;DHT22;59504;54.806;9.640;2023-05-01T07:18:51;10.90;57.00
71668;DHT22;59504;54.806;9.640;2023-05-01T07:20:52;11.00;56.90
71668;DHT22;59504;54.806;9.640;2023-05-01T07:23:01;11.10;56.80
71668;DHT22;59504;54.806;9.640;2023-05-01T07:25:10;11.20;56.50
71668;DHT22;59504;54.806;9.640;2023-05-01T07:27:17;11.20;56.40
71668;DHT22;59504;54.806;9.640;2023-05-01T07:29:20;11.30;56.30
71668;DHT22;59504;54.806;9.640;2023-05-01T07:31:28;11.50;56.10
71668;DHT22;59504;54.806;9.640;2023-05-01T07:33:38;11.50;56.00
71668;DHT22;59504;54.806;9.640;2023-05-01T07:35:45;11.60;55.70
71668;DHT22;59504;54.806;9.640;2023-05-01T07:37:51;11.60;55.60
71668;DHT22;59504;54.806;9.640;2023-05-01T07:39:52;11.70;55.10
71668;DHT22;59504;54.806;9.640;2023-05-01T07:41:58;11.80;54.90
71668;DHT22;59504;54.806;9.640;2023-05-01T07:46:39;12.00;54.60
71668;DHT22;59504;54.806;9.640;2023-05-01T07:48:42;12.10;54.40
71668;DHT22;59504;54.806;9.640;2023-05-01T07:50:44;12.20;54.50
71668;DHT22;59504;54.806;9.640;2023-05-01T07:52:48;12.30;54.10
71668;DHT22;59504;54.806;9.640;2023-05-01T07:54:55;12.40;54.10
71668;DHT22;59504;54.806;9.640;2023-05-01T07:57:04;12.50;53.70
71668;DHT22;59504;54.806;9.640;2023-05-01T07:59:20;12.60;52.30
71668;DHT22;59504;54.806;9.640;2023-05-01T08:04:20;12.80;52.80
71668;DHT22;59504;54.806;9.640;2023-05-01T08:06:31;12.80;51.40
71668;DHT22;59504;54.806;9.640;2023-05-01T08:08:33;12.90;50.00
71668;DHT22;59504;54.806;9.640;2023-05-01T08:10:34;13.00;51.40
71668;DHT22;59504;54.806;9.640;2023-05-01T08:12:49;13.10;50.80
71668;DHT22;59504;54.806;9.640;2023-05-01T08:14:57;13.20;49.70
71668;DHT22;59504;54.806;9.640;2023-05-01T08:17:05;13.30;49.60
71668;DHT22;59504;54.806;9.640;2023-05-01T08:19:06;13.40;51.00
71668;DHT22;59504;54.806;9.640;2023-05-01T08:21:19;13.50;51.80
71668;DHT22;59504;54.806;9.640;2023-05-01T08:23:35;13.70;49.70
71668;DHT22;59504;54.806;9.640;2023-05-01T08:25:36;13.70;50.10
71668;DHT22;59504;54.806;9.640;2023-05-01T08:27:46;13.80;48.40
71668;DHT22;59504;54.806;9.640;2023-05-01T08:29:56;13.90;49.70
71668;DHT22;59504;54.806;9.640;2023-05-01T08:34:17;14.20;50.80
71668;DHT22;59504;54.806;9.640;2023-05-01T08:36:36;14.30;50.80
71668;DHT22;59504;54.806;9.640;2023-05-01T08:38:40;14.40;49.50
71668;DHT22;59504;54.806;9.640;2023-05-01T08:40:53;14.50;45.70
71668;DHT22;59504;54.806;9.640;2023-05-01T08:43:37;14.60;46.60
71668;DHT22;59504;54.806;9.640;2023-05-01T08:48:53;14.80;42.30
71668;DHT22;59504;54.806;9.640;2023-05-01T08:54:05;15.00;45.70
71668;DHT22;59504;54.806;9.640;2023-05-01T08:56:17;15.10;44.90
71668;DHT22;59504;54.806;9.640;2023-05-01T08:58:47;15.10;42.70
71668;DHT22;59504;54.806;9.640;2023-05-01T09:00:53;15.30;44.70
71668;DHT22;59504;54.806;9.640;2023-05-01T09:02:56;15.30;42.50
71668;DHT22;59504;54.806;9.640;2023-05-01T09:05:00;15.40;41.60
71668;DHT22;59504;54.806;9.640;2023-05-01T09:07:01;15.40;39.20
71668;DHT22;59504;54.806;9.640;2023-05-01T09:09:01;15.50;40.70
71668;DHT22;59504;54.806;9.640;2023-05-01T09:11:02;15.60;42.50
71668;DHT22;59504;54.806;9.640;2023-05-01T09:13:03;15.60;42.20
71668;DHT22;59504;54.806;9.640;2023-05-01T09:15:06;15.60;38.20
71668;DHT22;59504;54.806;9.640;2023-05-01T09:17:07;15.70;39.10
71668;DHT22;59504;54.806;9.640;2023-05-01T09:19:08;15.70;38.50
71668;DHT22;59504;54.806;9.640;2023-05-01T09:21:09;15.70;38.30
71668;DHT22;59504;54.806;9.640;2023-05-01T09:23:16;15.80;39.00
71668;DHT22;59504;54.806;9.640;2023-05-01T09:25:22;15.80;39.40
71668;DHT22;59504;54.806;9.640;2023-05-01T09:27:23;15.80;38.00
71668;DHT22;59504;54.806;9.640;2023-05-01T09:29:36;15.90;38.50
71668;DHT22;59504;54.806;9.640;2023-05-01T09:31:37;15.90;39.30
71668;DHT22;59504;54.806;9.640;2023-05-01T09:33:44;15.90;36.00
71668;DHT22;59504;54.806;9.640;2023-05-01T09:35:56;16.00;36.50
71668;DHT22;59504;54.806;9.640;2023-05-01T09:37:58;16.00;36.30
71668;DHT22;59504;54.806;9.640;2023-05-01T09:40:25;16.10;38.90
71668;DHT22;59504;54.806;9.640;2023-05-01T09:42:23;16.10;39.30
71668;DHT22;59504;54.806;9.640;2023-05-01T09:44:23;16.20;35.80
71668;DHT22;59504;54.806;9.640;2023-05-01T09:46:25;16.20;38.30
71668;DHT22;59504;54.806;9.640;2023-05-01T09:48:25;16.20;38.20
71668;DHT22;59504;54.806;9.640;2023-05-01T09:50:30;16.30;38.50
71668;DHT22;59504;54.806;9.640;2023-05-01T09:52:31;16.30;39.20
71668;DHT22;59504;54.806;9.640;2023-05-01T09:54:33;16.40;39.20
71668;DHT22;59504;54.806;9.640;2023-05-01T09:56:33;16.40;36.40
71668;DHT22;59504;54.806;9.640;2023-05-01T09:58:45;16.50;38.00
71668;DHT22;59504;54.806;9.640;2023-05-01T10:00:55;16.50;39.60
71668;DHT22;59504;54.806;9.640;2023-05-01T10:02:58;16.60;40.10
71668;DHT22;59504;54.806;9.640;2023-05-01T10:05:12;16.70;39.90
71668;DHT22;59504;54.806;9.640;2023-05-01T10:07:13;16.80;37.90
71668;DHT22;59504;54.806;9.640;2023-05-01T10:09:13;16.80;40.10
71668;DHT22;59504;54.806;9.640;2023-05-01T10:11:26;16.90;39.40
71668;DHT22;59504;54.806;9.640;2023-05-01T10:13:27;16.90;39.00
71668;DHT22;59504;54.806;9.640;2023-05-01T10:15:37;17.00;37.20
71668;DHT22;59504;54.806;9.640;2023-05-01T10:17:38;17.00;37.60
71668;DHT22;59504;54.806;9.640;2023-05-01T10:19:39;17.10;38.60
71668;DHT22;59504;54.806;9.640;2023-05-01T10:21:40;17.20;38.20
71668;DHT22;59504;54.806;9.640;2023-05-01T10:23:40;17.20;36.80
71668;DHT22;59504;54.806;9.640;2023-05-01T10:25:41;17.30;37.30
71668;DHT22;59504;54.806;9.640;2023-05-01T10:27:43;17.40;38.60
71668;DHT22;59504;54.806;9.640;2023-05-01T10:29:43;17.50;39.40
71668;DHT22;59504;54.806;9.640;2023-05-01T10:31:45;17.50;39.90
71668;DHT22;59504;54.806;9.640;2023-05-01T10:33:46;17.50;39.20
71668;DHT22;59504;54.806;9.640;2023-05-01T10:35:48;17.60;38.00
71668;DHT22;59504;54.806;9.640;2023-05-01T10:39:57;17.70;38.00
71668;DHT22;59504;54.806;9.640;2023-05-01T10:55:31;18.00;35.70
71668;DHT22;59504;54.806;9.640;2023-05-01T10:57:41;18.00;36.80
71668;DHT22;59504;54.806;9.640;2023-05-01T11:01:59;18.10;34.90
71668;DHT22;59504;54.806;9.640;2023-05-01T11:04:01;18.10;36.40
71668;DHT22;59504;54.806;9.640;2023-05-01T11:10:25;18.20;36.20
71668;DHT22;59504;54.806;9.640;2023-05-01T11:17:02;18.20;36.00
71668;DHT22;59504;54.806;9.640;2023-05-01T11:19:03;18.30;36.20
71668;DHT22;59504;54.806;9.640;2023-05-01T11:21:04;18.30;37.20
71668;DHT22;59504;54.806;9.640;2023-05-01T11:23:04;18.40;37.50
71668;DHT22;59504;54.806;9.640;2023-05-01T11:25:19;18.50;35.50
71668;DHT22;59504;54.806;9.640;2023-05-01T11:27:20;18.50;36.90
71668;DHT22;59504;54.806;9.640;2023-05-01T11:29:21;18.60;37.20
71668;DHT22;59504;54.806;9.640;2023-05-01T11:31:22;18.60;36.20
71668;DHT22;59504;54.806;9.640;2023-05-01T11:33:23;18.60;37.20
71668;DHT22;59504;54.806;9.640;2023-05-01T11:35:25;18.70;36.80
71668;DHT22;59504;54.806;9.640;2023-05-01T11:37:37;18.70;34.50
71668;DHT22;59504;54.806;9.640;2023-05-01T11:39:45;18.80;35.00
71668;DHT22;59504;54.806;9.640;2023-05-01T11:41:46;18.80;36.20
71668;DHT22;59504;54.806;9.640;2023-05-01T11:43:47;18.80;36.60
71668;DHT22;59504;54.806;9.640;2023-05-01T11:45:48;18.80;36.50
71668;DHT22;59504;54.806;9.640;2023-05-01T11:47:50;18.80;36.50
71668;DHT22;59504;54.806;9.640;2023-05-01T11:49:52;18.80;36.30
71668;DHT22;59504;54.806;9.640;2023-05-01T11:51:59;18.90;35.00
71668;DHT22;59504;54.806;9.640;2023-05-01T11:54:19;18.80;34.40
71668;DHT22;59504;54.806;9.640;2023-05-01T11:56:40;18.80;34.60
71668;DHT22;59504;54.806;9.640;2023-05-01T11:59:12;18.80;35.40
71668;DHT22;59504;54.806;9.640;2023-05-01T12:01:35;18.80;34.50
71668;DHT22;59504;54.806;9.640;2023-05-01T12:03:45;18.80;33.40
71668;DHT22;59504;54.806;9.640;2023-05-01T12:06:05;18.90;34.70
71668;DHT22;59504;54.806;9.640;2023-05-01T12:08:26;18.80;35.60
71668;DHT22;59504;54.806;9.640;2023-05-01T12:10:47;18.80;35.40
71668;DHT22;59504;54.806;9.640;2023-05-01T12:13:09;18.80;35.60
71668;DHT22;59504;54.806;9.640;2023-05-01T12:15:30;18.90;34.90
71668;DHT22;59504;54.806;9.640;2023-05-01T12:17:51;18.90;33.10
71668;DHT22;59504;54.806;9.640;2023-05-01T12:20:12;18.90;33.80
71668;DHT22;59504;54.806;9.640;2023-05-01T12:22:33;18.90;33.80
71668;DHT22;59504;54.806;9.640;2023-05-01T12:24:33;18.90;34.30
71668;DHT22;59504;54.806;9.640;2023-05-01T12:26:34;18.90;33.70
71668;DHT22;59504;54.806;9.640;2023-05-01T12:28:35;18.90;33.40
71668;DHT22;59504;54.806;9.640;2023-05-01T12:30:37;18.90;34.10
71668;DHT22;59504;54.806;9.640;2023-05-01T12:32:37;18.90;33.70
71668;DHT22;59504;54.806;9.640;2023-05-01T12:34:39;18.90;34.10
71668;DHT22;59504;54.806;9.640;2023-05-01T12:36:40;18.90;34.20
71668;DHT22;59504;54.806;9.640;2023-05-01T12:38:40;18.90;34.60
71668;DHT22;59504;54.806;9.640;2023-05-01T12:42:53;19.00;34.60
71668;DHT22;59504;54.806;9.640;2023-05-01T12:44:58;19.00;34.90
71668;DHT22;59504;54.806;9.640;2023-05-01T12:47:02;19.00;32.70
71668;DHT22;59504;54.806;9.640;2023-05-01T12:49:02;19.00;33.10
71668;DHT22;59504;54.806;9.640;2023-05-01T12:51:04;19.10;32.90
71668;DHT22;59504;54.806;9.640;2023-05-01T12:53:05;19.00;33.20
71668;DHT22;59504;54.806;9.640;2023-05-01T12:55:07;19.00;33.90
71668;DHT22;59504;54.806;9.640;2023-05-01T12:59:56;19.10;33.90
71668;DHT22;59504;54.806;9.640;2023-05-01T13:02:09;19.00;33.50
71668;DHT22;59504;54.806;9.640;2023-05-01T13:04:10;19.00;33.80
71668;DHT22;59504;54.806;9.640;2023-05-01T13:08:34;19.00;33.60
71668;DHT22;59504;54.806;9.640;2023-05-01T13:10:35;18.90;33.00
71668;DHT22;59504;54.806;9.640;2023-05-01T13:12:42;18.90;32.60
71668;DHT22;59504;54.806;9.640;2023-05-01T13:14:58;18.90;33.20
71668;DHT22;59504;54.806;9.640;2023-05-01T13:17:05;18.90;33.50
71668;DHT22;59504;54.806;9.640;2023-05-01T13:19:12;18.90;32.20
71668;DHT22;59504;54.806;9.640;2023-05-01T13:21:18;18.90;33.30
71668;DHT22;59504;54.806;9.640;2023-05-01T13:23:28;18.80;33.30
71668;DHT22;59504;54.806;9.640;2023-05-01T13:25:29;18.80;33.50
71668;DHT22;59504;54.806;9.640;2023-05-01T13:27:29;18.80;33.40
71668;DHT22;59504;54.806;9.640;2023-05-01T13:29:31;18.80;32.80
71668;DHT22;59504;54.806;9.640;2023-05-01T13:33:54;18.80;33.20
71668;DHT22;59504;54.806;9.640;2023-05-01T13:35:58;18.80;32.90
71668;DHT22;59504;54.806;9.640;2023-05-01T13:37:59;18.60;33.00
71668;DHT22;59504;54.806;9.640;2023-05-01T13:40:12;18.70;33.20
71668;DHT22;59504;54.806;9.640;2023-05-01T13:42:31;18.70;33.10
71668;DHT22;59504;54.806;9.640;2023-05-01T13:44:49;18.70;33.00
71668;DHT22;59504;54.806;9.640;2023-05-01T13:46:53;18.70;33.70
71668;DHT22;59504;54.806;9.640;2023-05-01T13:48:53;18.70;33.80
71668;DHT22;59504;54.806;9.640;2023-05-01T13:50:54;18.70;33.10
71668;DHT22;59504;54.806;9.640;2023-05-01T13:52:55;18.70;32.80
71668;DHT22;59504;54.806;9.640;2023-05-01T13:57:59;18.80;33.80
71668;DHT22;59504;54.806;9.640;2023-05-01T14:00:00;18.80;32.90
71668;DHT22;59504;54.806;9.640;2023-05-01T14:02:06;18.80;33.50
71668;DHT22;59504;54.806;9.640;2023-05-01T14:05:06;18.80;32.90
71668;DHT22;59504;54.806;9.640;2023-05-01T14:07:09;18.70;33.00
71668;DHT22;59504;54.806;9.640;2023-05-01T14:09:15;18.80;33.60
71668;DHT22;59504;54.806;9.640;2023-05-01T14:11:26;18.80;33.50
71668;DHT22;59504;54.806;9.640;2023-05-01T14:13:26;18.80;32.90
71668;DHT22;59504;54.806;9.640;2023-05-01T14:15:32;18.80;33.10
71668;DHT22;59504;54.806;9.640;2023-05-01T14:17:42;18.80;33.40
71668;DHT22;59504;54.806;9.640;2023-05-01T14:19:44;18.80;33.40
71668;DHT22;59504;54.806;9.640;2023-05-01T14:24:57;18.90;33.70
71668;DHT22;59504;54.806;9.640;2023-05-01T14:27:18;18.80;32.90
71668;DHT22;59504;54.806;9.640;2023-05-01T14:29:40;18.90;33.20
71668;DHT22;59504;54.806;9.640;2023-05-01T14:32:02;18.90;33.40
71668;DHT22;59504;54.806;9.640;2023-05-01T14:34:37;18.90;33.70
71668;DHT22;59504;54.806;9.640;2023-05-01T14:36:37;18.90;34.30
71668;DHT22;59504;54.806;9.640;2023-05-01T14:38:38;18.90;34.30
71668;DHT22;59504;54.806;9.640;2023-05-01T14:40:40;18.80;33.40
71668;DHT22;59504;54.806;9.640;2023-05-01T14:42:59;18.80;34.10
71668;DHT22;59504;54.806;9.640;2023-05-01T14:45:04;18.80;34.40
71668;DHT22;59504;54.806;9.640;2023-05-01T14:47:07;18.70;34.40
71668;DHT22;59504;54.806;9.640;2023-05-01T14:49:08;18.70;34.80
71668;DHT22;59504;54.806;9.640;2023-05-01T14:51:11;18.70;34.40
71668;DHT22;59504;54.806;9.640;2023-05-01T14:53:29;18.70;34.30
71668;DHT22;59504;54.806;9.640;2023-05-01T14:55:39;18.60;34.60
71668;DHT22;59504;54.806;9.640;2023-05-01T14:57:41;18.60;35.00
71668;DHT22;59504;54.806;9.640;2023-05-01T14:59:41;18.50;35.00
71668;DHT22;59504;54.806;9.640;2023-05-01T15:01:42;18.60;34.90
71668;DHT22;59504;54.806;9.640;2023-05-01T15:06:15;18.50;34.80
71668;DHT22;59504;54.806;9.640;2023-05-01T15:08:16;18.40;34.10
71668;DHT22;59504;54.806;9.640;2023-05-01T15:10:16;18.40;34.40
71668;DHT22;59504;54.806;9.640;2023-05-01T15:12:17;18.40;34.60
71668;DHT22;59504;54.806;9.640;2023-05-01T15:14:18;18.40;34.20
71668;DHT22;59504;54.806;9.640;2023-05-01T15:16:18;18.40;34.20
71668;DHT22;59504;54.806;9.640;2023-05-01T15:20:21;18.30;33.60
71668;DHT22;59504;54.806;9.640;2023-05-01T15:22:22;18.30;33.40
71668;DHT22;59504;54.806;9.640;2023-05-01T15:24:22;18.30;33.00
71668;DHT22;59504;54.806;9.640;2023-05-01T15:26:23;18.30;33.40
71668;DHT22;59504;54.806;9.640;2023-05-01T15:28:23;18.30;33.30
71668;DHT22;59504;54.806;9.640;2023-05-01T15:30:24;18.20;33.60
71668;DHT22;59504;54.806;9.640;2023-05-01T15:32:25;18.30;33.90
71668;DHT22;59504;54.806;9.640;2023-05-01T15:34:25;18.20;33.50
71668;DHT22;59504;54.806;9.640;2023-05-01T15:36:26;18.20;33.90
71668;DHT22;59504;54.806;9.640;2023-05-01T15:38:27;18.20;34.20
71668;DHT22;59504;54.806;9.640;2023-05-01T15:40:27;18.20;34.30
71668;DHT22;59504;54.806;9.640;2023-05-01T15:42:28;18.10;34.20